首页
METAR-TAF:

METAR-TAF

机场 :

欧里亚克, 法国

纬度: 44-53N, 经度: 002-25E, 海拔: 639米

当前天气观测

该预报发布于27分钟前的04:00 UTC
静风
温度 7°C
湿度 100%
气压 1020 hPa
能见度10公里或以上
1500米以下无云,无积雨云

METAR: LFLW 220400Z AUTO 00000KT CAVOK 07/07 Q1020

时间: 06:27 (04:27 UTC)

预报

该预报发布于14小时和27分钟前的14:00 UTC
预报有效从21日的 15点(UTC)到 21日的 24点(UTC)
风速2节,风向多变
能见度10公里或以上
散云层高于2600英尺
短暂存在
从 21日的 15点(UTC)到 21日的 21点(UTC)
能见度10公里或以上
1500米以下无云,无积雨云
成为
从 21日的 21点(UTC)到 21日的 23点(UTC)
多云层高于800英尺

TAF: LFLW 211400Z 2115/2124 VRB02KT 9999 SCT026 TEMPO 2115/2121 CAVOK BECMG 2121/2123 BKN008

超过4000个机场的气象观测和天气预报(METAR&TAF报告)。

可查询的气象台以黄色和红色小点在地图上表示。

将鼠标移到小点上方,可查看气象台名称。

然后点击查看天气观测和预报。

如需切换地图:点击带黑十字的绿色按钮放大地图;点击带横线的绿色按钮缩小地图;或者点击绿色箭头查看邻近地区的地图。


METAR-TAF: